Carnival Pride — H3VU — position and weather

sailwx.info

Track history (hours):
 
Tides and Currents Weather Stations Pressure Air Temp Water Temp Dewpoint Dewpoint Depression Visibility Wind Speed Wind Dir Waves Ship Positions

Carnival Pride

Operator: Carnival Cruise Lines

Last reported at 2017-Jan-23 12:00 UTC. Time now 2017-Jan-23 18:49 UTC.
Position N 24°00' W 083°30'.

Type: Ship. MMSI: 354215000.

Wind from 290 at 55 knots

Barometer 1003.8 mb
Air temperature 22.0 ° C
Visibility: greater than 10.8 NM
Dewpoint 15.4 ° C
Water temperature 26.0 ° C

Date/timePositionNaut miles runAvg speedWind from/ knotsBaromVisibWave heightAir tempDewpointWater temp
2017-Jan-23 12:00N 24°00' W 083°30'4816.1 290 / 551003.810.8 22.015.426.0
2017-Jan-23 09:00N 24°48' W 083°24'17118.1 280 / 601001.9 5.4 22.015.426.0
2017-Jan-22 23:33N 27°36' W 082°50'1414.5
2017-Jan-22 22:33N 27°41' W 082°35'1413.7
2017-Jan-22 21:33N 27°52' W 082°27'4 4.1
2017-Jan-22 20:31N 27°57' W 082°27'0 0.0
2017-Jan-22 19:31N 27°57' W 082°27'0 0.0
2017-Jan-22 18:31N 27°57' W 082°27'0 0.0
2017-Jan-22 17:31N 27°57' W 082°27'0 0.0
2017-Jan-22 16:31N 27°57' W 082°27'0 0.0
2017-Jan-22 15:31N 27°57' W 082°27'0 0.0
2017-Jan-22 14:31N 27°57' W 082°27'0 0.0
2017-Jan-22 13:31N 27°57' W 082°27'0 0.0
2017-Jan-22 12:34N 27°57' W 082°27'3 2.8
2017-Jan-22 11:34N 27°54' W 082°26'1312.8
2017-Jan-22 10:33N 27°42' W 082°33'37916.8
2017-Jan-21 12:00N 21°48' W 085°00'   140 / 221011.610.8 25.018.827.0
2017-Jan-18 00:09N 20°15' W 087°05'1118.1
2017-Jan-17 23:33N 20°25' W 087°03'6 5.5
2017-Jan-17 22:33N 20°29' W 086°59'0 0.0
2017-Jan-17 21:33N 20°29' W 086°59'0 0.0
2017-Jan-17 20:33N 20°29' W 086°59'0 0.0
2017-Jan-17 19:33N 20°29' W 086°59'0 0.0
2017-Jan-17 18:33N 20°29' W 086°59'0 0.0
2017-Jan-17 17:33N 20°29' W 086°59'0 0.0
2017-Jan-17 16:32N 20°29' W 086°59'0 0.0
2017-Jan-17 15:32N 20°29' W 086°59'0 0.0
2017-Jan-17 14:32N 20°29' W 086°59'0 0.0
2017-Jan-17 13:32N 20°29' W 086°59'0 0.0
2017-Jan-17 12:33N 20°29' W 086°59'6 6.1
2017-Jan-17 11:33N 20°34' W 086°57'8 8.0
2017-Jan-17 10:33N 20°41' W 086°52'28012.4
2017-Jan-16 12:00N 24°48' W 084°30'17918.0 110 / 361018.110.8 23.014.626.0
2017-Jan-16 02:03N 27°30' W 083°05'915.9
2017-Jan-16 01:31N 27°36' W 082°58'1515.2
2017-Jan-16 00:33N 27°37' W 082°42'1413.6
2017-Jan-15 23:34N 27°47' W 082°31'10 9.7
2017-Jan-15 22:33N 27°55' W 082°27'1 1.3
2017-Jan-15 21:31N 27°57' W 082°27'0 0.0
2017-Jan-15 20:31N 27°57' W 082°27'0 0.0
2017-Jan-15 19:31N 27°57' W 082°27'0 0.0
2017-Jan-15 18:31N 27°57' W 082°27'0 0.0
2017-Jan-15 17:31N 27°57' W 082°27'0 0.0
2017-Jan-15 16:31N 27°57' W 082°27'0 0.0
2017-Jan-15 15:31N 27°57' W 082°27'0 0.0
2017-Jan-15 14:31N 27°57' W 082°27'0 0.0
2017-Jan-15 13:31N 27°57' W 082°27'0 0.0
2017-Jan-15 12:25N 27°57' W 082°27'0 0.0
2017-Jan-15 11:31N 27°57' W 082°27'0 0.2
2017-Jan-15 10:33N 27°57' W 082°27'6 5.8
2017-Jan-15 09:33N 27°51' W 082°27'1111.1
2017-Jan-15 08:33N 27°42' W 082°34'1111.3
2017-Jan-15 07:33N 27°36' W 082°45'1413.6
2017-Jan-15 06:33N 27°35' W 083°00'9915.1
2017-Jan-15 00:00N 26°06' W 083°48'37615.4 070 / 151024.710.8 22.013.426.0
2017-Jan-13 23:33N 20°33' W 086°58'4 4.2
2017-Jan-13 22:31N 20°29' W 086°59'0 0.0
2017-Jan-13 21:31N 20°29' W 086°59'0 0.0
2017-Jan-13 20:31N 20°29' W 086°59'0 0.0
2017-Jan-13 19:31N 20°29' W 086°59'0 0.0
2017-Jan-13 18:31N 20°29' W 086°59'0 0.0
2017-Jan-13 17:31N 20°29' W 086°59'0 0.0
2017-Jan-13 16:28N 20°29' W 086°59'0 0.0
2017-Jan-13 15:28N 20°29' W 086°59'0 0.0
2017-Jan-13 14:33N 20°29' W 086°59'7 6.8
2017-Jan-13 13:33N 20°24' W 087°04'  
Track history (hours):
 
Tides and Currents Weather Stations Pressure Air Temp Water Temp Dewpoint Dewpoint Depression Visibility Wind Speed Wind Dir Waves Ship Positions

Carnival Pride

Operator: Carnival Cruise Lines

Last reported at 2017-Jan-23 12:00 UTC. Time now 2017-Jan-23 18:49 UTC.
Position N 24°00' W 083°30'.

Type: Ship. MMSI: 354215000.

Wind from 290 at 55 knots

Barometer 1003.8 mb
Air temperature 22.0 ° C
Visibility: greater than 10.8 NM
Dewpoint 15.4 ° C
Water temperature 26.0 ° C

Date/timePositionNaut miles runAvg speedWind from/ knotsBaromVisibWave heightAir tempDewpointWater temp
2017-Jan-23 12:00N 24°00' W 083°30'4816.1 290 / 551003.810.8 22.015.426.0
2017-Jan-23 09:00N 24°48' W 083°24'17118.1 280 / 601001.9 5.4 22.015.426.0
2017-Jan-22 23:33N 27°36' W 082°50'1414.5
2017-Jan-22 22:33N 27°41' W 082°35'1413.7
2017-Jan-22 21:33N 27°52' W 082°27'4 4.1
2017-Jan-22 20:31N 27°57' W 082°27'0 0.0
2017-Jan-22 19:31N 27°57' W 082°27'0 0.0
2017-Jan-22 18:31N 27°57' W 082°27'0 0.0
2017-Jan-22 17:31N 27°57' W 082°27'0 0.0
2017-Jan-22 16:31N 27°57' W 082°27'0 0.0
2017-Jan-22 15:31N 27°57' W 082°27'0 0.0
2017-Jan-22 14:31N 27°57' W 082°27'0 0.0
2017-Jan-22 13:31N 27°57' W 082°27'0 0.0
2017-Jan-22 12:34N 27°57' W 082°27'3 2.8
2017-Jan-22 11:34N 27°54' W 082°26'1312.8
2017-Jan-22 10:33N 27°42' W 082°33'37916.8
2017-Jan-21 12:00N 21°48' W 085°00'   140 / 221011.610.8 25.018.827.0
2017-Jan-18 00:09N 20°15' W 087°05'1118.1
2017-Jan-17 23:33N 20°25' W 087°03'6 5.5
2017-Jan-17 22:33N 20°29' W 086°59'0 0.0
2017-Jan-17 21:33N 20°29' W 086°59'0 0.0
2017-Jan-17 20:33N 20°29' W 086°59'0 0.0
2017-Jan-17 19:33N 20°29' W 086°59'0 0.0
2017-Jan-17 18:33N 20°29' W 086°59'0 0.0
2017-Jan-17 17:33N 20°29' W 086°59'0 0.0
2017-Jan-17 16:32N 20°29' W 086°59'0 0.0
2017-Jan-17 15:32N 20°29' W 086°59'0 0.0
2017-Jan-17 14:32N 20°29' W 086°59'0 0.0
2017-Jan-17 13:32N 20°29' W 086°59'0 0.0
2017-Jan-17 12:33N 20°29' W 086°59'6 6.1
2017-Jan-17 11:33N 20°34' W 086°57'8 8.0
2017-Jan-17 10:33N 20°41' W 086°52'28012.4
2017-Jan-16 12:00N 24°48' W 084°30'17918.0 110 / 361018.110.8 23.014.626.0
2017-Jan-16 02:03N 27°30' W 083°05'915.9
2017-Jan-16 01:31N 27°36' W 082°58'1515.2
2017-Jan-16 00:33N 27°37' W 082°42'1413.6
2017-Jan-15 23:34N 27°47' W 082°31'10 9.7
2017-Jan-15 22:33N 27°55' W 082°27'1 1.3
2017-Jan-15 21:31N 27°57' W 082°27'0 0.0
2017-Jan-15 20:31N 27°57' W 082°27'0 0.0
2017-Jan-15 19:31N 27°57' W 082°27'0 0.0
2017-Jan-15 18:31N 27°57' W 082°27'0 0.0
2017-Jan-15 17:31N 27°57' W 082°27'0 0.0
2017-Jan-15 16:31N 27°57' W 082°27'0 0.0
2017-Jan-15 15:31N 27°57' W 082°27'0 0.0
2017-Jan-15 14:31N 27°57' W 082°27'0 0.0
2017-Jan-15 13:31N 27°57' W 082°27'0 0.0
2017-Jan-15 12:25N 27°57' W 082°27'0 0.0
2017-Jan-15 11:31N 27°57' W 082°27'0 0.2
2017-Jan-15 10:33N 27°57' W 082°27'6 5.8
2017-Jan-15 09:33N 27°51' W 082°27'1111.1
2017-Jan-15 08:33N 27°42' W 082°34'1111.3
2017-Jan-15 07:33N 27°36' W 082°45'1413.6
2017-Jan-15 06:33N 27°35' W 083°00'9915.1
2017-Jan-15 00:00N 26°06' W 083°48'37615.4 070 / 151024.710.8 22.013.426.0
2017-Jan-13 23:33N 20°33' W 086°58'4 4.2
2017-Jan-13 22:31N 20°29' W 086°59'0 0.0
2017-Jan-13 21:31N 20°29' W 086°59'0 0.0
2017-Jan-13 20:31N 20°29' W 086°59'0 0.0
2017-Jan-13 19:31N 20°29' W 086°59'0 0.0
2017-Jan-13 18:31N 20°29' W 086°59'0 0.0
2017-Jan-13 17:31N 20°29' W 086°59'0 0.0
2017-Jan-13 16:28N 20°29' W 086°59'0 0.0
2017-Jan-13 15:28N 20°29' W 086°59'0 0.0
2017-Jan-13 14:33N 20°29' W 086°59'7 6.8
2017-Jan-13 13:33N 20°24' W 087°04'  

Dump ship's entire track history